Flight Track Log - Related Links

Times and Time Zones

All times are in EDT time to prevent confusion due to time zone crossing. See the IGO482 flight status page for this flight to view local times or setup timezone preferences in your user account.


Time Position Orientation Groundspeed Altitude Reporting Facility
EDT Latitude Longitude Course Direction KTS MPH feet Rate Location/Type
Thu 12:58:52 AM 26.6780 75.1710 20° North 453 521 37,000  Level FlightAware ADS-B
Thu 12:59:47 AM 26.7870 75.2170 21° North 453 521 37,000  Level FlightAware ADS-B
Thu 01:00:32 AM 26.8830 75.2580 21° North 454 522 37,000  Level FlightAware ADS-B
Thu 01:01:12 AM 26.9550 75.2870 20° North 454 522 37,000  Level FlightAware ADS-B
Thu 01:01:52 AM 27.0220 75.3150 20° North 454 522 37,000  Level FlightAware ADS-B
Thu 01:02:42 AM 27.1060 75.3490 20° North 454 522 37,000 67 Level FlightAware ADS-B
Thu 01:03:22 AM 27.2230 75.4200 28° Northeast 466 536 37,100  Climbing FlightAware ADS-B
Thu 01:04:02 AM 27.2880 75.4780 38° Northeast 471 542 37,000 -282 Descending FlightAware ADS-B
Thu 01:04:47 AM 27.3490 75.5450 44° Northeast 467 537 36,700 -1,412 Descending FlightAware ADS-B
Thu 01:05:27 AM 27.4130 75.6150 44° Northeast 471 542 35,000 -2,625 Descending FlightAware ADS-B
Thu 01:06:07 AM 27.4790 75.6880 44° Northeast 475 547 33,200 -2,965 Descending FlightAware ADS-B
Thu 01:06:52 AM 27.5640 75.7820 44° Northeast 482 555 30,800 -2,533 Descending FlightAware ADS-B
Thu 01:07:37 AM 27.6340 75.8590 44° Northeast 467 537 29,400 -2,047 Descending FlightAware ADS-B
Thu 01:08:17 AM 27.6820 75.9060 41° Northeast 473 544 27,900 -2,250 Descending FlightAware ADS-B
Thu 01:08:57 AM 27.7490 75.9720 41° Northeast 465 535 26,400 -1,906 Descending FlightAware ADS-B
Thu 01:09:42 AM 27.8230 76.0430 40° Northeast 441 507 25,200 -1,906 Descending FlightAware ADS-B
Thu 01:10:22 AM 27.8820 76.1000 40° Northeast 434 499 23,700 -2,325 Descending FlightAware ADS-B
Thu 01:11:02 AM 27.9440 76.1600 41° Northeast 429 494 22,100 -2,400 Descending FlightAware ADS-B
Thu 01:11:42 AM 28.0080 76.2230 41° Northeast 425 489 20,500 -2,175 Descending FlightAware ADS-B
Thu 01:12:22 AM 28.0640 76.2770 40° Northeast 413 475 19,200 -1,933 Descending FlightAware ADS-B
Thu 01:13:12 AM 28.1370 76.3480 41° Northeast 399 459 17,600 -1,667 Descending FlightAware ADS-B
Thu 01:13:52 AM 28.1880 76.3980 41° Northeast 380 437 16,700 -1,500 Descending FlightAware ADS-B
Thu 01:14:32 AM 28.2380 76.4550 45° Northeast 368 423 15,600 -1,482 Descending FlightAware ADS-B
Thu 01:15:17 AM 28.2770 76.5280 59° Northeast 353 406 14,600 -1,200 Descending FlightAware ADS-B
Thu 01:15:57 AM 28.3080 76.5880 60° Northeast 353 406 13,900 -988 Descending FlightAware ADS-B
Thu 01:16:42 AM 28.3450 76.6610 60° Northeast 347 399 13,200 -776 Descending FlightAware ADS-B
Thu 01:17:22 AM 28.3740 76.7300 64° Northeast 348 400 12,800 -632 Descending FlightAware ADS-B
Thu 01:18:17 AM 28.4080 76.8140 65° Northeast 345 397 12,200 -720 Descending FlightAware ADS-B
Thu 01:19:02 AM 28.4430 76.8990 65° Northeast 336 387 11,600 -750 Descending FlightAware ADS-B
Thu 01:19:37 AM 28.4620 76.9460 65° Northeast 315 362 11,200 -840 Descending FlightAware ADS-B
Thu 01:19:52 AM 28.4670 76.9720 78° East 311 358 10,900 -1,543 Descending FlightAware ADS-B
Thu 01:20:12 AM 28.4590 77.0190 101° East 305 351 10,300 -1,600 Descending FlightAware ADS-B
Thu 01:20:37 AM 28.4510 77.0560 104° East 303 349 9,700 -1,418 Descending FlightAware ADS-B
Thu 01:21:07 AM 28.4400 77.1040 105° East 300 345 9,000 -1,418 Descending FlightAware ADS-B
Thu 01:21:32 AM 28.4320 77.1420 103° East 298 343 8,400 -982 Descending FlightAware ADS-B
Thu 01:22:02 AM 28.4220 77.1870 104° East 280 322 8,100 -600 Descending FlightAware ADS-B
Thu 01:22:32 AM 28.4140 77.2270 103° East 264 304 7,800 -873 Descending FlightAware ADS-B
Thu 01:22:57 AM 28.4070 77.2590 104° East 250 288 7,300 -1,745 Descending FlightAware ADS-B
Thu 01:23:27 AM 28.4010 77.2980 100° East 244 281 6,200 -2,133 Descending FlightAware ADS-B
Thu 01:23:42 AM 28.4100 77.3160 60° Northeast 237 273 5,700 -2,160 Descending FlightAware ADS-B
Thu 01:23:52 AM 28.4180 77.3230 38° Northeast 234 269 5,300 -2,160 Descending FlightAware ADS-B
Thu 01:24:07 AM 28.4330 77.3290 19° North 234 269 4,800 -1,867 Descending FlightAware ADS-B
Thu 01:24:37 AM 28.4620 77.3380 15° North 241 277 3,900 -1,309 Descending FlightAware ADS-B
Thu 01:25:02 AM 28.4900 77.3230 335° Northwest 228 262 3,600 -655 Descending FlightAware ADS-B
Thu 01:25:32 AM 28.5110 77.3000 316° Northwest 213 245 3,300 -533 Descending FlightAware ADS-B
Thu 01:25:47 AM 28.5190 77.2870 305° West 204 235 3,200 -300 Descending FlightAware ADS-B
Thu 01:26:12 AM 28.5260 77.2630 288° West 177 204 3,100 -545 Descending FlightAware ADS-B
Thu 01:26:42 AM 28.5320 77.2360 284° West 158 182 2,700 -764 Descending FlightAware ADS-B
Thu 01:27:07 AM 28.5370 77.2180 288° West 154 177 2,400 -655 Descending FlightAware ADS-B
Thu 01:27:37 AM 28.5420 77.1940 283° West 149 171 2,100 -667 Descending FlightAware ADS-B
Thu 01:27:52 AM 28.5450 77.1820 286° West 146 168 1,900 -800 Descending FlightAware ADS-B
Thu 01:28:22 AM 28.5500 77.1610 285° West 144 166 1,500 -764 Descending FlightAware ADS-B
Thu 01:28:47 AM 28.5540 77.1430 284° West 145 167 1,200 -646 Descending FlightAware ADS-B
Thu 01:29:27 AM 28.5590 77.1190 283° West 145 167 800 -600 Descending FlightAware ADS-B

Login

Don't have an account? Register now (free) for customized features, flight alerts, and more!